createdAt,value
2022-10-18T00:00:45.996Z,19.35
2022-10-18T00:03:36.279Z,18.20
2022-10-18T00:06:09.421Z,18.33
2022-10-18T00:08:41.129Z,18.63
2022-10-18T00:11:11.586Z,18.88
2022-10-18T00:13:41.511Z,23.25
2022-10-18T00:16:13.943Z,21.45
2022-10-18T00:18:44.414Z,22.02
2022-10-18T00:21:16.451Z,20.55
2022-10-18T00:23:48.611Z,19.50
2022-10-18T00:26:20.330Z,18.60
2022-10-18T00:28:53.246Z,16.50
2022-10-18T00:31:25.781Z,14.88
2022-10-18T00:33:56.654Z,15.68
2022-10-18T00:36:27.133Z,16.05
2022-10-18T00:38:58.457Z,16.80
2022-10-18T00:41:30.874Z,17.88
2022-10-18T00:44:02.359Z,17.15
2022-10-18T00:46:34.262Z,21.35
2022-10-18T00:49:06.230Z,21.40
2022-10-18T00:51:41.510Z,19.88
2022-10-18T00:54:13.200Z,19.52
2022-10-18T00:56:45.069Z,17.30
2022-10-18T00:59:16.918Z,17.58
2022-10-18T01:01:47.471Z,21.90
2022-10-18T01:04:18.580Z,18.50
2022-10-18T01:09:41.417Z,23.02
2022-10-18T01:12:23.771Z,16.27
2022-10-18T01:15:05.177Z,30.08
2022-10-18T01:17:42.045Z,22.42
2022-10-18T01:20:35.574Z,17.23
2022-10-18T01:23:10.028Z,18.95
2022-10-18T01:25:51.074Z,17.85
2022-10-18T01:28:40.302Z,18.67
2022-10-18T01:31:16.914Z,20.30
2022-10-18T01:33:52.217Z,20.83
2022-10-18T01:36:25.218Z,21.67
2022-10-18T01:38:59.350Z,19.27
2022-10-18T01:41:30.519Z,19.63
2022-10-18T01:44:03.581Z,20.58
2022-10-18T01:46:36.366Z,20.08
2022-10-18T01:49:06.759Z,22.48
2022-10-18T01:51:36.768Z,19.65
2022-10-18T01:54:07.038Z,20.23
2022-10-18T01:56:44.411Z,25.80
2022-10-18T01:59:26.217Z,26.98
2022-10-18T02:02:04.473Z,22.05
2022-10-18T02:04:43.935Z,25.42
2022-10-18T02:07:22.158Z,25.33
2022-10-18T02:10:02.730Z,25.25
2022-10-18T02:12:35.342Z,24.90
2022-10-18T02:15:10.270Z,23.25
2022-10-18T02:17:42.761Z,24.10
2022-10-18T02:20:15.010Z,23.77
2022-10-18T02:22:46.424Z,23.20
2022-10-18T02:25:21.832Z,21.48
2022-10-18T02:27:51.894Z,24.88
2022-10-18T02:30:24.659Z,21.58
2022-10-18T02:33:03.617Z,22.35
2022-10-18T02:35:39.299Z,24.75
2022-10-18T02:38:10.021Z,24.25
2022-10-18T02:40:40.129Z,22.35
2022-10-18T02:43:09.834Z,21.70
2022-10-18T02:50:06.933Z,21.88
2022-10-18T02:52:37.224Z,23.10
2022-10-18T02:55:08.518Z,26.50
2022-10-18T02:57:38.653Z,25.65
2022-10-18T03:00:09.346Z,24.48
2022-10-18T03:02:39.341Z,25.65
2022-10-18T03:05:10.902Z,25.40
2022-10-18T03:07:40.834Z,26.27
2022-10-18T03:10:11.278Z,20.40
2022-10-18T03:12:41.988Z,22.95
2022-10-18T03:15:12.317Z,22.83
2022-10-18T03:18:00.519Z,21.73
2022-10-18T03:20:32.360Z,20.60
2022-10-18T03:23:02.001Z,20.15
2022-10-18T03:28:01.286Z,19.77
2022-10-18T03:33:00.474Z,22.92
2022-10-18T03:35:31.952Z,18.70
2022-10-18T03:38:01.609Z,24.17
2022-10-18T03:43:06.155Z,23.23
2022-10-18T03:48:05.936Z,21.13
2022-10-18T03:50:37.543Z,18.65
2022-10-18T03:53:07.688Z,20.15
2022-10-18T03:55:39.169Z,19.17
2022-10-18T03:58:08.992Z,18.83
2022-10-18T04:00:38.990Z,26.48
2022-10-18T04:03:08.658Z,24.30
2022-10-18T04:08:09.411Z,18.67
2022-10-18T04:10:40.285Z,20.13
2022-10-18T04:13:10.549Z,26.92
2022-10-18T04:15:40.790Z,25.95
2022-10-18T04:18:10.620Z,25.02
2022-10-18T04:20:42.153Z,22.98
2022-10-18T04:23:12.148Z,21.95
2022-10-18T04:28:13.660Z,30.98
2022-10-18T04:30:43.651Z,22.50
2022-10-18T04:33:13.179Z,36.15
2022-10-18T04:38:14.665Z,31.55
2022-10-18T04:40:44.741Z,30.48
2022-10-18T04:43:14.914Z,32.40
2022-10-18T04:45:47.402Z,29.13
2022-10-18T04:48:17.503Z,28.42
2022-10-18T04:50:51.703Z,30.15
2022-10-18T04:53:21.425Z,26.88
2022-10-18T04:55:52.093Z,35.67
2022-10-18T04:58:22.231Z,33.22
2022-10-18T05:00:52.461Z,28.80
2022-10-18T05:03:22.366Z,29.65
2022-10-18T05:06:03.530Z,30.13
2022-10-18T05:08:36.740Z,31.63
2022-10-18T05:11:12.752Z,24.80
2022-10-18T05:17:02.980Z,30.77
2022-10-18T05:19:32.997Z,25.42
2022-10-18T05:22:05.003Z,29.85
2022-10-18T05:24:34.678Z,31.95
2022-10-18T05:27:04.814Z,41.25
2022-10-18T05:29:35.503Z,33.33
2022-10-18T05:32:45.930Z,38.97
2022-10-18T05:35:25.355Z,32.10
2022-10-18T05:38:00.046Z,30.10
2022-10-18T05:40:44.797Z,31.05
2022-10-18T05:43:14.970Z,29.15
2022-10-18T05:45:49.755Z,31.48
2022-10-18T05:48:20.343Z,33.15
2022-10-18T05:50:50.151Z,31.00
2022-10-18T05:53:37.738Z,33.67
2022-10-18T05:56:08.995Z,36.13
2022-10-18T05:58:39.197Z,35.85
2022-10-18T06:03:39.288Z,29.73
2022-10-18T06:06:10.539Z,28.35
2022-10-18T06:08:43.319Z,33.30
2022-10-18T06:26:03.054Z,37.45
2022-10-18T06:28:36.975Z,38.78
2022-10-18T06:31:08.304Z,31.90
2022-10-18T06:33:38.598Z,24.45
2022-10-18T06:36:12.180Z,21.58
2022-10-18T06:38:43.421Z,25.50
2022-10-18T06:41:15.100Z,20.95
2022-10-18T06:43:49.313Z,20.73
2022-10-18T06:46:19.231Z,24.10
2022-10-18T06:48:50.879Z,20.50
2022-10-18T06:51:21.287Z,22.70
2022-10-18T06:54:06.205Z,18.33
2022-10-18T06:56:43.732Z,17.00
2022-10-18T06:59:24.358Z,17.73
2022-10-18T07:04:47.285Z,15.50
2022-10-18T07:10:25.694Z,17.83
2022-10-18T07:13:13.659Z,17.70
2022-10-18T07:15:48.591Z,16.90
2022-10-18T07:19:04.050Z,19.98
2022-10-18T07:21:52.793Z,17.98
2022-10-18T07:24:25.015Z,18.73
2022-10-18T07:26:55.744Z,18.02
2022-10-18T07:29:28.410Z,16.65
2022-10-18T07:32:01.008Z,18.80
2022-10-18T07:34:31.565Z,18.23
2022-10-18T07:37:03.837Z,15.63
2022-10-18T07:39:33.929Z,16.75
2022-10-18T07:42:04.331Z,17.95
2022-10-18T07:44:36.125Z,16.00
2022-10-18T07:47:06.342Z,15.73
2022-10-18T07:52:06.458Z,15.85
2022-10-18T07:54:36.263Z,17.92
2022-10-18T07:57:06.763Z,14.90
2022-10-18T07:59:39.577Z,15.65
2022-10-18T08:02:10.995Z,15.68
2022-10-18T08:04:40.795Z,13.85
2022-10-18T08:07:11.253Z,16.27
2022-10-18T08:09:41.722Z,14.90
2022-10-18T08:12:12.732Z,16.02
2022-10-18T08:14:45.139Z,12.57
2022-10-18T08:17:15.454Z,15.15
2022-10-18T08:19:52.969Z,13.88
2022-10-18T08:22:35.203Z,13.93
2022-10-18T08:25:06.060Z,14.02
2022-10-18T08:32:16.259Z,16.45
2022-10-18T08:35:38.691Z,13.68
2022-10-18T08:38:16.600Z,13.93
2022-10-18T08:40:49.151Z,13.60
2022-10-18T08:43:28.111Z,13.20
2022-10-18T08:45:58.950Z,10.63
2022-10-18T08:48:37.269Z,10.98
2022-10-18T08:51:21.898Z,10.90
2022-10-18T08:53:58.691Z,9.82
2022-10-18T08:56:29.279Z,14.80
2022-10-18T08:58:59.121Z,9.88
2022-10-18T09:01:38.506Z,10.13
2022-10-18T09:04:34.887Z,12.43
2022-10-18T09:11:20.863Z,8.60
2022-10-18T09:14:34.838Z,11.45
2022-10-18T09:17:24.024Z,11.85
2022-10-18T09:20:09.758Z,10.20
2022-10-18T09:22:50.834Z,10.73
2022-10-18T09:25:23.000Z,9.95
2022-10-18T09:27:58.536Z,8.82
2022-10-18T09:30:46.233Z,8.55
2022-10-18T09:33:38.602Z,13.00
2022-10-18T09:36:12.339Z,13.30
2022-10-18T09:42:36.554Z,8.88
2022-10-18T09:45:17.132Z,10.07
2022-10-18T09:47:54.046Z,11.65
2022-10-18T09:50:27.553Z,7.90
2022-10-18T09:53:06.734Z,8.65
2022-10-18T09:55:41.173Z,7.68
2022-10-18T09:58:15.536Z,6.43
2022-10-18T10:00:50.392Z,7.50
2022-10-18T10:03:20.535Z,9.02
2022-10-18T10:06:30.566Z,7.97
2022-10-18T10:12:32.839Z,9.30
2022-10-18T10:16:07.135Z,6.47
2022-10-18T10:18:55.735Z,8.50
2022-10-18T10:21:26.747Z,6.38
2022-10-18T10:24:00.431Z,12.55
2022-10-18T10:26:35.203Z,10.43
2022-10-18T10:29:13.114Z,7.38
2022-10-18T10:31:48.522Z,8.18
2022-10-18T10:34:22.069Z,5.57
2022-10-18T10:36:53.611Z,5.95
2022-10-18T10:39:25.321Z,6.32
2022-10-18T10:41:59.590Z,7.18
2022-10-18T10:44:31.969Z,7.93
2022-10-18T10:47:02.222Z,4.50
2022-10-18T10:49:45.521Z,9.38
2022-10-18T10:52:27.221Z,8.52
2022-10-18T10:55:34.069Z,6.78
2022-10-18T10:57:54.804Z,5.38
2022-10-18T11:00:45.911Z,7.13
2022-10-18T11:03:28.658Z,6.15
2022-10-18T11:06:01.194Z,9.75
2022-10-18T11:08:37.223Z,7.55
2022-10-18T11:11:20.606Z,8.23
2022-10-18T11:14:20.932Z,7.13
2022-10-18T11:16:58.271Z,8.20
2022-10-18T11:19:39.124Z,7.13
2022-10-18T11:22:15.507Z,8.43
2022-10-18T11:24:46.213Z,7.05
2022-10-18T11:27:26.718Z,6.80
2022-10-18T11:30:17.133Z,8.27
2022-10-18T11:32:55.796Z,5.05
2022-10-18T11:35:37.296Z,7.55
2022-10-18T11:38:17.903Z,8.45
2022-10-18T11:40:59.620Z,7.70
2022-10-18T11:44:01.246Z,7.30
2022-10-18T11:46:44.436Z,7.88
2022-10-18T11:49:27.316Z,7.35
2022-10-18T11:52:10.397Z,6.15
2022-10-18T11:54:55.110Z,7.03
2022-10-18T11:57:43.554Z,5.32
2022-10-18T12:00:29.317Z,6.80
2022-10-18T12:03:16.509Z,8.80
2022-10-18T12:05:48.991Z,7.63
2022-10-18T12:08:23.162Z,6.13
2022-10-18T12:11:04.987Z,6.78
2022-10-18T12:13:42.148Z,6.63
2022-10-18T12:16:12.854Z,7.22
2022-10-18T12:21:28.945Z,7.65
2022-10-18T12:24:03.014Z,7.15
2022-10-18T12:26:34.366Z,9.57
2022-10-18T12:29:14.632Z,9.98
2022-10-18T12:31:48.154Z,10.68
2022-10-18T12:34:31.023Z,10.82
2022-10-18T12:37:23.617Z,7.90
2022-10-18T12:40:15.504Z,8.02
2022-10-18T12:42:48.515Z,8.25
2022-10-18T12:45:27.758Z,7.75
2022-10-18T12:48:10.152Z,7.45
2022-10-18T12:50:44.104Z,7.75
2022-10-18T12:53:20.219Z,8.63
2022-10-18T12:55:54.144Z,7.15
2022-10-18T12:58:32.917Z,8.75
2022-10-18T13:01:13.841Z,8.18
2022-10-18T13:03:57.445Z,7.35
2022-10-18T13:07:11.425Z,5.82
2022-10-18T13:31:59.265Z,9.48
2022-10-18T13:34:35.563Z,6.70
2022-10-18T13:37:08.014Z,11.38
2022-10-18T13:39:39.972Z,8.63
2022-10-18T13:42:33.448Z,6.55
2022-10-18T13:45:46.960Z,9.65
2022-10-18T13:48:53.048Z,8.27
2022-10-18T13:51:57.311Z,8.30
2022-10-18T13:54:59.158Z,11.10
2022-10-18T13:57:47.666Z,7.78
2022-10-18T14:00:35.629Z,8.30
2022-10-18T14:03:56.166Z,8.18
2022-10-18T14:06:28.931Z,10.15
2022-10-18T14:09:09.734Z,6.88
2022-10-18T14:11:54.434Z,8.23
2022-10-18T14:14:34.388Z,10.43
2022-10-18T14:17:17.957Z,11.07
2022-10-18T14:19:52.552Z,8.88
2022-10-18T14:22:27.571Z,9.43
2022-10-18T14:24:59.349Z,10.93
2022-10-18T14:27:33.206Z,12.43
2022-10-18T14:30:12.515Z,12.57
2022-10-18T14:32:47.637Z,9.82
2022-10-18T14:35:37.120Z,9.43
2022-10-18T14:38:16.505Z,9.68
2022-10-18T14:40:46.736Z,16.30
2022-10-18T14:43:21.679Z,11.60
2022-10-18T14:45:51.322Z,7.35
2022-10-18T14:48:24.616Z,10.32
2022-10-18T14:51:00.811Z,10.13
2022-10-18T14:53:39.328Z,11.85
2022-10-18T14:56:10.278Z,13.40
2022-10-18T14:58:43.907Z,12.70
2022-10-18T15:01:18.666Z,10.38
2022-10-18T15:03:49.868Z,10.55
2022-10-18T15:06:21.439Z,12.80
2022-10-18T15:08:57.000Z,10.50
2022-10-18T15:11:28.198Z,12.85
2022-10-18T15:14:03.322Z,12.18
2022-10-18T15:16:34.542Z,13.65
2022-10-18T15:19:07.807Z,13.00
2022-10-18T15:21:37.654Z,15.52
2022-10-18T15:24:33.293Z,16.35
2022-10-18T15:27:11.090Z,15.50
2022-10-18T15:29:44.044Z,14.15
2022-10-18T15:32:21.817Z,20.10
2022-10-18T15:34:52.497Z,17.15
2022-10-18T15:37:34.670Z,18.73
2022-10-18T15:40:38.845Z,18.90
2022-10-18T15:43:45.579Z,18.27
2022-10-18T15:46:32.672Z,14.65
2022-10-18T15:49:56.861Z,19.15
2022-10-18T15:55:48.145Z,19.00
2022-10-18T15:58:23.104Z,20.52
2022-10-18T16:00:55.621Z,26.90
2022-10-18T16:03:26.927Z,24.45
2022-10-18T16:06:01.118Z,24.55
2022-10-18T16:08:32.881Z,28.92
2022-10-18T16:11:05.284Z,27.67
2022-10-18T16:13:35.640Z,32.47
2022-10-18T16:18:35.704Z,37.38
2022-10-18T16:21:05.851Z,39.13
2022-10-18T16:23:36.443Z,39.40
2022-10-18T16:26:09.353Z,34.83
2022-10-18T16:28:39.819Z,35.13
2022-10-18T16:31:10.174Z,34.47
2022-10-18T16:33:40.927Z,29.50
2022-10-18T16:36:16.297Z,30.67
2022-10-18T16:38:46.744Z,32.17
2022-10-18T16:41:18.857Z,31.77
2022-10-18T16:43:50.487Z,24.55
2022-10-18T16:46:23.757Z,31.33
2022-10-18T16:48:54.044Z,22.17
2022-10-18T16:51:24.320Z,23.63
2022-10-18T16:53:54.928Z,21.77
2022-10-18T16:56:28.834Z,22.02
2022-10-18T16:59:00.390Z,22.73
2022-10-18T17:01:30.900Z,21.23
2022-10-18T17:04:01.642Z,22.92
2022-10-18T17:09:03.569Z,22.00
2022-10-18T17:11:34.910Z,23.52
2022-10-18T17:14:05.335Z,27.52
2022-10-18T17:16:37.565Z,20.23
2022-10-18T17:19:12.427Z,19.58
2022-10-18T17:21:42.119Z,19.98
2022-10-18T17:24:12.480Z,23.05
2022-10-18T17:26:43.672Z,25.98
2022-10-18T17:29:14.287Z,21.48
2022-10-18T17:31:44.436Z,22.38
2022-10-18T17:34:21.454Z,21.88
2022-10-18T17:36:52.230Z,21.00
2022-10-18T17:39:22.261Z,24.35
2022-10-18T17:41:55.832Z,20.65
2022-10-18T17:44:27.107Z,25.50
2022-10-18T17:46:56.807Z,24.92
2022-10-18T17:49:26.904Z,23.02
2022-10-18T17:51:57.763Z,24.30
2022-10-18T17:54:27.885Z,25.10
2022-10-18T17:57:01.459Z,22.25
2022-10-18T17:59:32.545Z,26.23
2022-10-18T18:02:02.836Z,22.38
2022-10-18T18:04:33.062Z,26.98
2022-10-18T18:07:04.802Z,23.00
2022-10-18T18:09:34.764Z,28.40
2022-10-18T18:12:06.493Z,34.65
2022-10-18T18:14:36.435Z,34.97
2022-10-18T18:17:06.400Z,28.65
2022-10-18T18:19:37.431Z,34.80
2022-10-18T18:22:07.490Z,30.73
2022-10-18T18:24:37.810Z,31.17
2022-10-18T18:27:09.515Z,31.17
2022-10-18T18:29:39.707Z,28.30
2022-10-18T18:32:09.766Z,32.25
2022-10-18T18:34:41.098Z,34.42
2022-10-18T18:37:11.494Z,33.80
2022-10-18T18:39:41.465Z,32.08
2022-10-18T18:42:12.878Z,33.15
2022-10-18T18:44:46.330Z,28.23
2022-10-18T18:47:16.095Z,29.33
2022-10-18T18:49:46.139Z,29.38
2022-10-18T18:52:15.785Z,25.70
2022-10-18T18:54:46.037Z,24.38
2022-10-18T18:57:18.692Z,26.75
2022-10-18T18:59:48.724Z,26.38
2022-10-18T19:02:18.421Z,28.08
2022-10-18T19:04:48.610Z,30.83
2022-10-18T19:07:18.340Z,30.33
2022-10-18T19:09:50.908Z,27.90
2022-10-18T19:12:22.026Z,29.83
2022-10-18T19:14:52.140Z,26.45
2022-10-18T19:17:22.281Z,29.48
2022-10-18T19:19:52.928Z,31.17
2022-10-18T19:22:22.846Z,29.30
2022-10-18T19:24:53.091Z,31.45
2022-10-18T19:27:24.568Z,29.85
2022-10-18T19:29:54.743Z,28.33
2022-10-18T19:32:24.722Z,32.80
2022-10-18T19:34:54.734Z,35.75
2022-10-18T19:37:24.804Z,36.28
2022-10-18T19:40:28.276Z,34.55
2022-10-18T19:43:02.762Z,34.08
2022-10-18T19:45:33.605Z,34.47
2022-10-18T19:48:03.513Z,30.23
2022-10-18T19:50:33.727Z,35.25
2022-10-18T19:53:03.776Z,37.92
2022-10-18T19:55:35.697Z,32.42
2022-10-18T19:58:07.012Z,36.10
2022-10-18T20:00:37.349Z,39.08
2022-10-18T20:03:07.086Z,37.58
2022-10-18T20:05:37.032Z,36.50
2022-10-18T20:08:07.275Z,36.42
2022-10-18T20:10:37.765Z,36.17
2022-10-18T20:13:09.598Z,38.90
2022-10-18T20:15:39.781Z,37.67
2022-10-18T20:20:39.402Z,34.28
2022-10-18T20:23:09.308Z,35.45
2022-10-18T20:25:39.570Z,38.63
2022-10-18T20:28:10.959Z,38.03
2022-10-18T20:30:41.135Z,35.95
2022-10-18T20:33:11.047Z,33.13
2022-10-18T20:35:41.130Z,39.17
2022-10-18T20:38:10.686Z,37.08
2022-10-18T20:40:40.625Z,37.83
2022-10-18T20:43:11.728Z,32.47
2022-10-18T20:45:41.677Z,32.13
2022-10-18T20:48:11.386Z,38.45
2022-10-18T20:50:44.478Z,36.17
2022-10-18T20:53:14.285Z,36.72
2022-10-18T20:55:44.422Z,32.92
2022-10-18T20:58:15.579Z,35.95
2022-10-18T21:00:45.644Z,35.53
2022-10-18T21:03:15.295Z,40.72
2022-10-18T21:08:14.419Z,38.17
2022-10-18T21:13:14.935Z,36.40
2022-10-18T21:15:44.904Z,33.50
2022-10-18T21:20:44.363Z,34.17
2022-10-18T21:23:14.001Z,34.80
2022-10-18T21:25:46.557Z,34.78
2022-10-18T21:28:18.183Z,37.53
2022-10-18T21:30:48.324Z,35.83
2022-10-18T21:33:18.436Z,36.10
2022-10-18T21:38:17.750Z,39.38
2022-10-18T21:40:47.623Z,34.85
2022-10-18T21:43:18.781Z,34.22
2022-10-18T21:45:48.690Z,35.88
2022-10-18T21:48:18.343Z,34.88
2022-10-18T21:50:48.242Z,32.55
2022-10-18T21:53:17.946Z,35.42
2022-10-18T21:58:18.925Z,35.33
2022-10-18T22:00:48.975Z,36.67
2022-10-18T22:03:18.780Z,34.53
2022-10-18T22:05:48.816Z,35.47
2022-10-18T22:08:18.579Z,34.90
2022-10-18T22:10:48.485Z,33.20
2022-10-18T22:13:19.550Z,32.63
2022-10-18T22:15:49.369Z,32.78
2022-10-18T22:18:19.267Z,30.95
2022-10-18T22:20:56.071Z,34.05
2022-10-18T22:23:25.634Z,34.83
2022-10-18T22:25:55.467Z,32.88
2022-10-18T22:28:26.585Z,31.27
2022-10-18T22:30:56.474Z,29.45
2022-10-18T22:33:26.205Z,30.88
2022-10-18T22:50:27.242Z,26.95
2022-10-18T22:52:57.275Z,30.35
2022-10-18T22:55:26.981Z,28.13
2022-10-18T22:58:14.638Z,29.98
2022-10-18T23:00:44.530Z,28.13
2022-10-18T23:03:15.985Z,30.08
2022-10-18T23:05:48.705Z,28.58
2022-10-18T23:08:18.182Z,31.38
2022-10-18T23:10:48.052Z,30.83
2022-10-18T23:13:17.618Z,34.75
2022-10-18T23:15:47.393Z,34.38
2022-10-18T23:18:17.942Z,32.05
2022-10-18T23:20:49.246Z,31.35
2022-10-18T23:23:18.801Z,36.58
2022-10-18T23:25:51.648Z,30.90
2022-10-18T23:28:22.124Z,29.83
2022-10-18T23:30:52.017Z,26.92
2022-10-18T23:33:21.543Z,28.55
2022-10-18T23:38:21.949Z,32.83
2022-10-18T23:40:51.681Z,61.88
2022-10-18T23:43:21.194Z,27.55
2022-10-18T23:45:51.034Z,31.88
2022-10-18T23:48:20.714Z,29.52
2022-10-18T23:50:53.004Z,34.20
2022-10-18T23:53:23.070Z,37.88
2022-10-18T23:55:55.422Z,31.65
2022-10-18T23:58:25.555Z,36.28
